createdAt,value
2018-12-19T00:00:12.676Z,1017.97
2018-12-19T00:01:12.666Z,1017.94
2018-12-19T00:02:12.657Z,1017.96
2018-12-19T00:03:12.647Z,1017.95
2018-12-19T00:04:12.642Z,1017.94
2018-12-19T00:05:12.624Z,1017.96
2018-12-19T00:06:12.618Z,1017.98
2018-12-19T00:07:12.603Z,1017.94
2018-12-19T00:08:12.593Z,1017.95
2018-12-19T00:09:12.586Z,1017.90
2018-12-19T00:10:12.582Z,1017.92
2018-12-19T00:11:12.561Z,1017.87
2018-12-19T00:12:12.551Z,1017.92
2018-12-19T00:13:12.543Z,1017.84
2018-12-19T00:14:12.530Z,1017.87
2018-12-19T00:15:12.520Z,1017.82
2018-12-19T00:16:12.512Z,1017.87
2018-12-19T00:17:12.499Z,1017.89
2018-12-19T00:18:12.490Z,1017.91
2018-12-19T00:19:12.477Z,1017.86
2018-12-19T00:20:12.469Z,1017.89
2018-12-19T00:21:12.457Z,1017.82
2018-12-19T00:22:12.445Z,1017.86
2018-12-19T00:23:12.489Z,1017.84
2018-12-19T00:24:12.423Z,1017.91
2018-12-19T00:25:12.415Z,1017.88
2018-12-19T00:26:12.403Z,1017.94
2018-12-19T00:27:12.393Z,1017.88
2018-12-19T00:28:12.382Z,1017.88
2018-12-19T00:29:12.374Z,1017.86
2018-12-19T00:30:12.362Z,1017.90
2018-12-19T00:31:12.352Z,1017.83
2018-12-19T00:32:12.340Z,1017.86
2018-12-19T00:33:12.333Z,1017.80
2018-12-19T00:34:12.321Z,1017.83
2018-12-19T00:35:12.308Z,1017.83
2018-12-19T00:36:12.297Z,1017.82
2018-12-19T00:37:12.291Z,1017.85
2018-12-19T00:38:12.279Z,1017.85
2018-12-19T00:39:12.271Z,1017.85
2018-12-19T00:40:12.256Z,1017.81
2018-12-19T00:41:12.246Z,1017.83
2018-12-19T00:42:12.236Z,1017.75
2018-12-19T00:43:12.228Z,1017.72
2018-12-19T00:44:12.214Z,1017.67
2018-12-19T00:45:12.204Z,1017.70
2018-12-19T00:46:12.196Z,1017.59
2018-12-19T00:47:12.185Z,1017.66
2018-12-19T00:48:12.171Z,1017.64
2018-12-19T00:49:12.166Z,1017.67
2018-12-19T00:50:12.152Z,1017.70
2018-12-19T00:51:12.143Z,1017.65
2018-12-19T00:52:12.134Z,1017.73
2018-12-19T00:53:12.120Z,1017.71
2018-12-19T00:54:12.109Z,1017.68
2018-12-19T00:55:12.152Z,1017.69
2018-12-19T00:56:12.090Z,1017.73
2018-12-19T00:57:12.080Z,1017.74
2018-12-19T00:58:12.072Z,1017.75
2018-12-19T00:59:12.060Z,1017.76
2018-12-19T01:00:12.046Z,1017.70
2018-12-19T01:01:12.036Z,1017.69
2018-12-19T01:02:12.030Z,1017.75
2018-12-19T01:03:12.018Z,1017.72
2018-12-19T01:04:12.004Z,1017.70
2018-12-19T01:05:11.993Z,1017.71
2018-12-19T01:06:11.994Z,1017.64
2018-12-19T01:07:11.973Z,1017.70
2018-12-19T01:08:11.962Z,1017.71
2018-12-19T01:09:15.878Z,1017.73
2018-12-19T01:10:11.944Z,1017.74
2018-12-19T01:11:11.937Z,1017.73
2018-12-19T01:12:11.920Z,1017.70
2018-12-19T01:13:11.914Z,1017.68
2018-12-19T01:14:11.901Z,1017.68
2018-12-19T01:15:11.896Z,1017.66
2018-12-19T01:16:11.878Z,1017.65
2018-12-19T01:17:11.869Z,1017.63
2018-12-19T01:18:11.858Z,1017.60
2018-12-19T01:19:11.847Z,1017.50
2018-12-19T01:20:11.842Z,1017.49
2018-12-19T01:21:11.827Z,1017.53
2018-12-19T01:22:11.816Z,1017.50
2018-12-19T01:23:11.805Z,1017.50
2018-12-19T01:24:11.794Z,1017.52
2018-12-19T01:25:11.783Z,1017.52
2018-12-19T01:26:11.775Z,1017.53
2018-12-19T01:27:11.762Z,1017.51
2018-12-19T01:28:11.752Z,1017.51
2018-12-19T01:29:11.741Z,1017.57
2018-12-19T01:30:11.730Z,1017.57
2018-12-19T01:31:11.725Z,1017.51
2018-12-19T01:32:11.709Z,1017.53
2018-12-19T01:33:11.702Z,1017.49
2018-12-19T01:34:11.689Z,1017.48
2018-12-19T01:35:11.678Z,1017.44
2018-12-19T01:36:11.679Z,1017.49
2018-12-19T01:37:11.657Z,1017.46
2018-12-19T01:38:11.670Z,1017.53
2018-12-19T01:39:11.639Z,1017.49
2018-12-19T01:40:11.626Z,1017.45
2018-12-19T01:41:11.616Z,1017.54
2018-12-19T01:42:11.605Z,1017.52
2018-12-19T01:43:11.595Z,1017.50
2018-12-19T01:44:11.589Z,1017.52
2018-12-19T01:45:11.576Z,1017.56
2018-12-19T01:46:11.564Z,1017.56
2018-12-19T01:47:11.554Z,1017.53
2018-12-19T01:48:11.543Z,1017.52
2018-12-19T01:49:11.534Z,1017.53
2018-12-19T01:50:11.520Z,1017.50
2018-12-19T01:51:11.515Z,1017.52
2018-12-19T01:52:11.500Z,1017.55
2018-12-19T01:53:11.489Z,1017.53
2018-12-19T01:54:11.479Z,1017.48
2018-12-19T01:55:11.472Z,1017.54
2018-12-19T01:56:11.459Z,1017.54
2018-12-19T01:57:11.454Z,1017.55
2018-12-19T01:58:11.436Z,1017.54
2018-12-19T01:59:11.428Z,1017.49
2018-12-19T02:00:11.419Z,1017.48
2018-12-19T02:01:11.406Z,1017.51
2018-12-19T02:02:11.403Z,1017.52
2018-12-19T02:03:11.385Z,1017.45
2018-12-19T02:04:11.373Z,1017.41
2018-12-19T02:05:11.365Z,1017.43
2018-12-19T02:06:11.353Z,1017.40
2018-12-19T02:07:11.343Z,1017.45
2018-12-19T02:08:11.331Z,1017.43
2018-12-19T02:09:11.322Z,1017.45
2018-12-19T02:10:11.312Z,1017.42
2018-12-19T02:11:11.305Z,1017.40
2018-12-19T02:12:11.292Z,1017.38
2018-12-19T02:13:11.279Z,1017.37
2018-12-19T02:14:11.270Z,1017.32
2018-12-19T02:15:11.259Z,1017.30
2018-12-19T02:16:11.249Z,1017.27
2018-12-19T02:17:11.241Z,1017.30
2018-12-19T02:18:11.228Z,1017.21
2018-12-19T02:19:11.216Z,1017.24
2018-12-19T02:20:11.206Z,1017.24
2018-12-19T02:21:11.197Z,1017.22
2018-12-19T02:22:11.186Z,1017.15
2018-12-19T02:23:11.174Z,1017.15
2018-12-19T02:24:11.165Z,1017.12
2018-12-19T02:25:11.158Z,1017.13
2018-12-19T02:26:11.146Z,1017.14
2018-12-19T02:27:11.134Z,1017.15
2018-12-19T02:28:11.121Z,1017.12
2018-12-19T02:29:11.112Z,1017.16
2018-12-19T02:30:11.106Z,1017.14
2018-12-19T02:31:11.092Z,1017.17
2018-12-19T02:32:11.082Z,1017.13
2018-12-19T02:33:11.073Z,1017.06
2018-12-19T02:34:11.061Z,1017.13
2018-12-19T02:35:11.047Z,1017.09
2018-12-19T02:36:11.044Z,1017.11
2018-12-19T02:37:11.029Z,1017.07
2018-12-19T02:38:11.018Z,1017.04
2018-12-19T02:39:11.009Z,1017.04
2018-12-19T02:40:10.996Z,1017.00
2018-12-19T02:41:10.986Z,1016.97
2018-12-19T02:42:10.976Z,1016.99
2018-12-19T02:43:10.966Z,1016.97
2018-12-19T02:44:10.955Z,1016.94
2018-12-19T02:45:10.944Z,1016.97
2018-12-19T02:46:10.932Z,1016.90
2018-12-19T02:47:10.923Z,1016.95
2018-12-19T02:48:10.914Z,1016.99
2018-12-19T02:49:10.901Z,1016.90
2018-12-19T02:50:10.896Z,1016.94
2018-12-19T02:51:10.881Z,1016.90
2018-12-19T02:52:10.871Z,1016.96
2018-12-19T02:53:10.858Z,1016.91
2018-12-19T02:54:10.850Z,1016.94
2018-12-19T02:55:10.837Z,1016.90
2018-12-19T02:56:10.830Z,1016.91
2018-12-19T02:57:10.819Z,1016.89
2018-12-19T02:58:10.806Z,1016.91
2018-12-19T02:59:10.795Z,1016.94
2018-12-19T03:00:10.790Z,1016.93
2018-12-19T03:01:10.780Z,1016.91
2018-12-19T03:02:10.766Z,1016.87
2018-12-19T03:03:10.756Z,1016.84
2018-12-19T03:04:10.745Z,1016.84
2018-12-19T03:05:10.734Z,1016.80
2018-12-19T03:06:10.725Z,1016.86
2018-12-19T03:07:10.711Z,1016.82
2018-12-19T03:08:10.703Z,1016.82
2018-12-19T03:09:10.693Z,1016.82
2018-12-19T03:10:10.689Z,1016.81
2018-12-19T03:11:10.673Z,1016.76
2018-12-19T03:12:10.661Z,1016.72
2018-12-19T03:13:10.651Z,1016.80
2018-12-19T03:14:10.638Z,1016.79
2018-12-19T03:15:10.628Z,1016.78
2018-12-19T03:16:10.618Z,1016.77
2018-12-19T03:17:10.617Z,1016.75
2018-12-19T03:18:10.597Z,1016.69
2018-12-19T03:19:10.586Z,1016.73
2018-12-19T03:20:10.576Z,1016.70
2018-12-19T03:21:10.565Z,1016.71
2018-12-19T03:22:10.555Z,1016.74
2018-12-19T03:23:10.545Z,1016.71
2018-12-19T03:24:10.534Z,1016.69
2018-12-19T03:25:10.525Z,1016.69
2018-12-19T03:26:10.511Z,1016.67
2018-12-19T03:27:10.504Z,1016.66
2018-12-19T03:28:10.491Z,1016.70
2018-12-19T03:29:10.481Z,1016.68
2018-12-19T03:30:10.472Z,1016.67
2018-12-19T03:31:10.460Z,1016.70
2018-12-19T03:32:10.454Z,1016.70
2018-12-19T03:33:10.438Z,1016.67
2018-12-19T03:34:10.427Z,1016.71
2018-12-19T03:35:10.419Z,1016.66
2018-12-19T03:36:10.409Z,1016.64
2018-12-19T03:37:10.400Z,1016.70
2018-12-19T03:38:10.387Z,1016.67
2018-12-19T03:39:10.377Z,1016.62
2018-12-19T03:40:10.367Z,1016.63
2018-12-19T03:41:10.360Z,1016.63
2018-12-19T03:42:10.347Z,1016.64
2018-12-19T03:43:10.334Z,1016.61
2018-12-19T03:44:10.335Z,1016.64
2018-12-19T03:45:10.316Z,1016.67
2018-12-19T03:46:10.307Z,1016.62
2018-12-19T03:47:10.295Z,1016.63
2018-12-19T03:48:10.287Z,1016.61
2018-12-19T03:49:10.268Z,1016.63
2018-12-19T03:50:10.259Z,1016.61
2018-12-19T03:51:10.251Z,1016.62
2018-12-19T03:52:10.237Z,1016.62
2018-12-19T03:53:10.229Z,1016.63
2018-12-19T03:54:10.222Z,1016.59
2018-12-19T03:55:10.210Z,1016.57
2018-12-19T03:56:10.198Z,1016.64
2018-12-19T03:57:10.186Z,1016.64
2018-12-19T03:58:10.178Z,1016.65
2018-12-19T03:59:10.164Z,1016.64
2018-12-19T04:00:10.155Z,1016.65
2018-12-19T04:01:10.144Z,1016.53
2018-12-19T04:02:10.134Z,1016.54
2018-12-19T04:03:10.125Z,1016.54
2018-12-19T04:04:10.115Z,1016.51
2018-12-19T04:05:10.103Z,1016.50
2018-12-19T04:06:10.095Z,1016.49
2018-12-19T04:07:10.088Z,1016.54
2018-12-19T04:08:10.073Z,1016.56
2018-12-19T04:09:10.062Z,1016.47
2018-12-19T04:10:10.051Z,1016.55
2018-12-19T04:11:10.043Z,1016.53
2018-12-19T04:12:10.031Z,1016.45
2018-12-19T04:13:10.020Z,1016.50
2018-12-19T04:14:10.008Z,1016.47
2018-12-19T04:15:09.998Z,1016.45
2018-12-19T04:16:09.994Z,1016.43
2018-12-19T04:17:10.063Z,1016.42
2018-12-19T04:18:09.968Z,1016.40
2018-12-19T04:19:09.975Z,1016.37
2018-12-19T04:20:09.952Z,1016.36
2018-12-19T04:21:09.942Z,1016.33
2018-12-19T04:22:09.924Z,1016.39
2018-12-19T04:23:09.913Z,1016.25
2018-12-19T04:24:09.903Z,1016.28
2018-12-19T04:25:09.894Z,1016.30
2018-12-19T04:26:09.894Z,1016.21
2018-12-19T04:27:09.879Z,1016.16
2018-12-19T04:28:09.864Z,1016.17
2018-12-19T04:29:09.851Z,1016.13
2018-12-19T04:30:09.843Z,1016.11
2018-12-19T04:31:09.831Z,1016.09
2018-12-19T04:32:09.824Z,1016.04
2018-12-19T04:33:09.810Z,1016.02
2018-12-19T04:34:09.802Z,1015.93
2018-12-19T04:35:09.789Z,1016.00
2018-12-19T04:36:09.781Z,1015.99
2018-12-19T04:37:09.769Z,1015.98
2018-12-19T04:38:09.759Z,1015.98
2018-12-19T04:39:09.746Z,1015.96
2018-12-19T04:40:09.735Z,1015.99
2018-12-19T04:41:09.724Z,1015.98
2018-12-19T04:42:09.716Z,1015.99
2018-12-19T04:43:09.716Z,1016.00
2018-12-19T04:44:09.701Z,1015.98
2018-12-19T04:45:09.684Z,1015.95
2018-12-19T04:46:09.676Z,1015.90
2018-12-19T04:47:09.663Z,1015.90
2018-12-19T04:48:09.659Z,1015.87
2018-12-19T04:49:09.642Z,1015.87
2018-12-19T04:50:09.631Z,1015.84
2018-12-19T04:51:09.622Z,1015.85
2018-12-19T04:52:09.612Z,1015.82
2018-12-19T04:53:09.598Z,1015.79
2018-12-19T04:54:09.595Z,1015.73
2018-12-19T04:55:09.579Z,1015.73
2018-12-19T04:56:09.571Z,1015.76
2018-12-19T04:57:09.557Z,1015.65
2018-12-19T04:58:09.546Z,1015.65
2018-12-19T04:59:09.536Z,1015.62
2018-12-19T05:00:09.532Z,1015.61
2018-12-19T05:01:09.517Z,1015.58
2018-12-19T05:02:09.505Z,1015.61
2018-12-19T05:03:09.493Z,1015.58
2018-12-19T05:04:09.482Z,1015.61
2018-12-19T05:05:09.472Z,1015.63
2018-12-19T05:06:09.464Z,1015.65
2018-12-19T05:07:09.453Z,1015.56
2018-12-19T05:08:09.440Z,1015.58
2018-12-19T05:09:09.432Z,1015.47
2018-12-19T05:10:12.407Z,1015.48
2018-12-19T05:11:09.412Z,1015.50
2018-12-19T05:12:09.401Z,1015.53
2018-12-19T05:13:09.387Z,1015.46
2018-12-19T05:14:09.379Z,1015.48
2018-12-19T05:15:09.366Z,1015.51
2018-12-19T05:16:09.357Z,1015.45
2018-12-19T05:17:09.345Z,1015.43
2018-12-19T05:18:09.339Z,1015.43
2018-12-19T05:19:09.325Z,1015.45
2018-12-19T05:20:09.320Z,1015.37
2018-12-19T05:21:09.308Z,1015.43
2018-12-19T05:22:09.293Z,1015.43
2018-12-19T05:23:09.282Z,1015.38
2018-12-19T05:24:09.271Z,1015.33
2018-12-19T05:25:09.261Z,1015.38
2018-12-19T05:26:09.252Z,1015.34
2018-12-19T05:27:09.244Z,1015.34
2018-12-19T05:28:09.232Z,1015.32
2018-12-19T05:29:09.223Z,1015.28
2018-12-19T05:30:09.213Z,1015.27
2018-12-19T05:31:09.203Z,1015.36
2018-12-19T05:32:09.193Z,1015.27
2018-12-19T05:33:09.183Z,1015.31
2018-12-19T05:34:09.172Z,1015.27
2018-12-19T05:35:09.159Z,1015.27
2018-12-19T05:36:09.182Z,1015.25
2018-12-19T05:37:09.138Z,1015.26
2018-12-19T05:38:09.134Z,1015.24
2018-12-19T05:39:09.118Z,1015.28
2018-12-19T05:40:09.106Z,1015.30
2018-12-19T05:41:09.096Z,1015.29
2018-12-19T05:42:09.088Z,1015.31
2018-12-19T05:43:09.075Z,1015.27
2018-12-19T05:44:09.065Z,1015.33
2018-12-19T05:45:09.057Z,1015.32
2018-12-19T05:46:09.048Z,1015.31
2018-12-19T05:47:09.036Z,1015.32
2018-12-19T05:48:09.027Z,1015.32
2018-12-19T05:49:09.012Z,1015.31
2018-12-19T05:50:09.000Z,1015.30
2018-12-19T05:51:08.989Z,1015.32
2018-12-19T05:52:08.981Z,1015.35
2018-12-19T05:53:08.990Z,1015.38
2018-12-19T05:54:08.960Z,1015.34
2018-12-19T05:55:08.950Z,1015.37
2018-12-19T05:56:08.938Z,1015.34
2018-12-19T05:57:08.931Z,1015.31
2018-12-19T05:58:08.916Z,1015.29
2018-12-19T05:59:08.912Z,1015.28
2018-12-19T06:00:08.900Z,1015.25
2018-12-19T06:01:08.888Z,1015.26
2018-12-19T06:02:08.876Z,1015.30
2018-12-19T06:03:08.864Z,1015.29
2018-12-19T06:04:08.852Z,1015.33
2018-12-19T06:05:08.842Z,1015.29
2018-12-19T06:06:08.830Z,1015.37
2018-12-19T06:07:08.819Z,1015.35
2018-12-19T06:08:08.811Z,1015.33
2018-12-19T06:09:08.797Z,1015.31
2018-12-19T06:10:08.794Z,1015.31
2018-12-19T06:11:08.777Z,1015.31
2018-12-19T06:12:08.767Z,1015.25
2018-12-19T06:13:08.756Z,1015.23
2018-12-19T06:14:08.747Z,1015.25
2018-12-19T06:15:08.735Z,1015.27
2018-12-19T06:16:08.727Z,1015.22
2018-12-19T06:17:08.717Z,1015.20
2018-12-19T06:18:08.707Z,1015.20
2018-12-19T06:19:08.694Z,1015.19
2018-12-19T06:20:08.682Z,1015.19
2018-12-19T06:21:08.681Z,1015.13
2018-12-19T06:22:08.663Z,1015.16
2018-12-19T06:23:08.653Z,1015.08
2018-12-19T06:24:08.640Z,1015.12
2018-12-19T06:25:08.631Z,1015.09
2018-12-19T06:26:08.621Z,1015.06
2018-12-19T06:27:08.608Z,1015.08
2018-12-19T06:28:08.658Z,1015.03
2018-12-19T06:29:08.587Z,1014.98
2018-12-19T06:30:08.576Z,1014.96
2018-12-19T06:31:08.568Z,1014.98
2018-12-19T06:32:08.558Z,1015.05
2018-12-19T06:33:08.545Z,1014.97
2018-12-19T06:34:08.535Z,1015.07
2018-12-19T06:35:08.525Z,1015.12
2018-12-19T06:36:08.513Z,1015.15
2018-12-19T06:37:08.504Z,1015.11
2018-12-19T06:38:08.494Z,1015.15
2018-12-19T06:39:08.482Z,1015.08
2018-12-19T06:40:08.471Z,1015.08
2018-12-19T06:41:08.462Z,1015.04
2018-12-19T06:42:08.453Z,1015.04
2018-12-19T06:43:08.439Z,1015.07
2018-12-19T06:44:08.429Z,1015.13
2018-12-19T06:45:08.418Z,1015.12
2018-12-19T06:46:08.408Z,1015.08
2018-12-19T06:47:08.399Z,1015.15
2018-12-19T06:48:08.391Z,1015.12
2018-12-19T06:49:08.378Z,1015.16
2018-12-19T06:50:08.366Z,1015.14
2018-12-19T06:51:08.358Z,1015.15
2018-12-19T06:52:08.344Z,1015.10
2018-12-19T06:53:08.338Z,1015.09
2018-12-19T06:54:08.324Z,1015.13
2018-12-19T06:55:08.315Z,1015.13
2018-12-19T06:56:08.307Z,1015.07
2018-12-19T06:57:09.596Z,1015.16
2018-12-19T06:58:08.283Z,1015.24
2018-12-19T06:59:08.271Z,1015.18
2018-12-19T07:00:08.264Z,1015.17
2018-12-19T07:01:08.254Z,1015.15
2018-12-19T07:02:08.243Z,1015.15
2018-12-19T07:03:08.232Z,1015.20
2018-12-19T07:04:08.220Z,1015.19
2018-12-19T07:05:08.210Z,1015.14
2018-12-19T07:06:08.199Z,1015.19
2018-12-19T07:07:08.189Z,1015.20
2018-12-19T07:08:08.180Z,1015.21
2018-12-19T07:09:08.167Z,1015.20
2018-12-19T07:10:08.157Z,1015.20
2018-12-19T07:11:08.148Z,1015.20
2018-12-19T07:12:08.136Z,1015.23
2018-12-19T07:13:08.129Z,1015.21
2018-12-19T07:14:08.115Z,1015.20
2018-12-19T07:15:08.104Z,1015.16
2018-12-19T07:16:08.093Z,1015.16
2018-12-19T07:17:08.087Z,1015.14
2018-12-19T07:18:08.072Z,1015.11
2018-12-19T07:19:08.068Z,1015.15
2018-12-19T07:20:08.053Z,1015.04
2018-12-19T07:21:08.040Z,1015.12
2018-12-19T07:22:08.031Z,1015.05
2018-12-19T07:23:08.018Z,1015.13
2018-12-19T07:24:08.011Z,1015.06
2018-12-19T07:25:07.999Z,1015.06
2018-12-19T07:26:07.987Z,1015.09
2018-12-19T07:27:07.978Z,1015.06
2018-12-19T07:28:07.970Z,1015.04
2018-12-19T07:29:07.955Z,1015.15
2018-12-19T07:30:07.946Z,1015.14
2018-12-19T07:31:07.941Z,1015.15
2018-12-19T07:32:07.925Z,1015.14
2018-12-19T07:33:07.916Z,1015.12
2018-12-19T07:34:07.907Z,1015.07
2018-12-19T07:35:07.894Z,1015.09
2018-12-19T07:36:07.881Z,1015.08
2018-12-19T07:37:07.873Z,1015.01
2018-12-19T07:38:07.863Z,1015.05
2018-12-19T07:39:07.853Z,1015.06
2018-12-19T07:40:07.840Z,1015.06
2018-12-19T07:41:07.834Z,1015.10
2018-12-19T07:42:07.821Z,1014.99
2018-12-19T07:43:07.811Z,1015.02
2018-12-19T07:44:07.799Z,1015.04
2018-12-19T07:45:07.786Z,1015.05
2018-12-19T07:46:07.779Z,1015.03
2018-12-19T07:47:07.770Z,1015.07
2018-12-19T07:48:07.755Z,1015.05
2018-12-19T07:49:07.747Z,1015.11
2018-12-19T07:50:07.736Z,1015.11
2018-12-19T07:51:07.726Z,1015.09
2018-12-19T07:52:07.716Z,1015.05
2018-12-19T07:53:07.703Z,1015.07
2018-12-19T07:54:07.702Z,1015.06
2018-12-19T07:55:07.683Z,1015.04
2018-12-19T07:56:07.671Z,1015.05
2018-12-19T07:57:07.662Z,1014.97
2018-12-19T07:58:07.652Z,1015.01
2018-12-19T07:59:07.640Z,1015.02
2018-12-19T08:00:07.631Z,1015.09
2018-12-19T08:01:07.619Z,1015.08
2018-12-19T08:02:07.612Z,1015.10
2018-12-19T08:03:07.600Z,1015.05
2018-12-19T08:04:07.594Z,1015.01
2018-12-19T08:05:07.578Z,1015.01
2018-12-19T08:06:07.567Z,1014.97
2018-12-19T08:07:07.561Z,1014.91
2018-12-19T08:08:07.548Z,1014.95
2018-12-19T08:09:07.541Z,1014.87
2018-12-19T08:10:07.527Z,1014.85
2018-12-19T08:11:07.516Z,1014.89
2018-12-19T08:12:07.504Z,1014.83
2018-12-19T08:13:07.497Z,1014.86
2018-12-19T08:14:07.482Z,1014.91
2018-12-19T08:15:07.471Z,1014.84
2018-12-19T08:16:07.462Z,1014.81
2018-12-19T08:17:07.453Z,1014.88
2018-12-19T08:18:07.446Z,1014.86
2018-12-19T08:19:07.430Z,1014.81
2018-12-19T08:20:07.419Z,1014.83
2018-12-19T08:21:07.409Z,1014.85
2018-12-19T08:22:07.399Z,1014.86
2018-12-19T08:23:07.390Z,1014.87
2018-12-19T08:24:07.378Z,1014.83
2018-12-19T08:25:07.365Z,1014.88
2018-12-19T08:26:07.356Z,1014.81
2018-12-19T08:27:07.348Z,1014.86
2018-12-19T08:28:07.335Z,1014.81
2018-12-19T08:29:07.327Z,1014.81
2018-12-19T08:30:07.319Z,1014.77
2018-12-19T08:31:07.303Z,1014.76
2018-12-19T08:32:07.293Z,1014.71
2018-12-19T08:33:07.281Z,1014.73
2018-12-19T08:34:07.273Z,1014.72
2018-12-19T08:35:07.262Z,1014.76
2018-12-19T08:36:07.253Z,1014.75
2018-12-19T08:37:07.240Z,1014.78
2018-12-19T08:38:07.231Z,1014.78
2018-12-19T08:39:07.221Z,1014.77
2018-12-19T08:40:07.209Z,1014.80
2018-12-19T08:41:07.197Z,1014.84
2018-12-19T08:42:07.207Z,1014.86
2018-12-19T08:43:07.176Z,1014.86
2018-12-19T08:44:07.179Z,1014.85
2018-12-19T08:45:07.155Z,1014.86
2018-12-19T08:46:07.147Z,1014.86
2018-12-19T08:47:07.135Z,1014.82
2018-12-19T08:48:07.125Z,1014.81
2018-12-19T08:49:07.115Z,1014.77
2018-12-19T08:50:07.102Z,1014.78
2018-12-19T08:51:07.113Z,1014.75
2018-12-19T08:52:07.083Z,1014.71
2018-12-19T08:53:07.071Z,1014.68
2018-12-19T08:54:07.100Z,1014.72
2018-12-19T08:55:07.050Z,1014.75
2018-12-19T08:56:07.039Z,1014.75
2018-12-19T08:57:07.032Z,1014.68
2018-12-19T08:58:07.019Z,1014.78
2018-12-19T08:59:07.007Z,1014.73
2018-12-19T09:00:06.997Z,1014.77
2018-12-19T09:01:06.988Z,1014.73
2018-12-19T09:02:06.979Z,1014.82
2018-12-19T09:03:06.966Z,1014.86
2018-12-19T09:04:06.975Z,1014.85
2018-12-19T09:05:06.949Z,1014.84
2018-12-19T09:06:06.935Z,1014.79
2018-12-19T09:07:06.926Z,1014.79
2018-12-19T09:08:06.918Z,1014.87
2018-12-19T09:09:06.904Z,1014.81
2018-12-19T09:10:06.896Z,1014.80
2018-12-19T09:11:06.884Z,1014.82
2018-12-19T09:12:06.872Z,1014.87
2018-12-19T09:13:06.867Z,1014.82
2018-12-19T09:14:06.849Z,1014.88
2018-12-19T09:15:06.841Z,1014.82
2018-12-19T09:16:06.828Z,1014.87
2018-12-19T09:17:06.818Z,1014.85
2018-12-19T09:18:06.807Z,1014.93
2018-12-19T09:19:06.802Z,1014.86
2018-12-19T09:20:06.787Z,1014.88
2018-12-19T09:21:06.775Z,1014.86
2018-12-19T09:22:06.772Z,1014.81
2018-12-19T09:23:06.759Z,1014.89
2018-12-19T09:24:06.743Z,1014.82
2018-12-19T09:25:06.734Z,1014.78
2018-12-19T09:26:06.725Z,1014.81
2018-12-19T09:27:06.712Z,1014.77
2018-12-19T09:28:06.703Z,1014.67
2018-12-19T09:29:06.692Z,1014.68
2018-12-19T09:30:06.682Z,1014.58
2018-12-19T09:31:06.671Z,1014.59
2018-12-19T09:32:06.659Z,1014.57
2018-12-19T09:33:06.648Z,1014.56
2018-12-19T09:34:06.640Z,1014.58
2018-12-19T09:35:06.627Z,1014.52
2018-12-19T09:36:06.632Z,1014.53
2018-12-19T09:37:06.609Z,1014.56
2018-12-19T09:38:06.595Z,1014.51
2018-12-19T09:39:06.584Z,1014.51
2018-12-19T09:40:06.574Z,1014.49
2018-12-19T09:41:12.070Z,1014.48
2018-12-19T09:42:07.554Z,1014.45
2018-12-19T09:43:06.542Z,1014.44
2018-12-19T09:44:06.536Z,1014.43
2018-12-19T09:45:06.575Z,1014.46
2018-12-19T09:46:06.510Z,1014.48
2018-12-19T09:47:06.500Z,1014.38
2018-12-19T09:48:06.493Z,1014.36
2018-12-19T09:49:12.194Z,1014.39
2018-12-19T09:50:07.468Z,1014.35
2018-12-19T09:51:06.458Z,1014.33
2018-12-19T09:52:06.449Z,1014.35
2018-12-19T09:53:06.436Z,1014.31
2018-12-19T09:54:06.426Z,1014.34
2018-12-19T09:55:06.416Z,1014.33
2018-12-19T09:56:06.404Z,1014.33
2018-12-19T09:57:06.396Z,1014.36
2018-12-19T09:58:06.385Z,1014.28
2018-12-19T09:59:06.373Z,1014.27
2018-12-19T10:00:06.365Z,1014.16
2018-12-19T10:01:06.353Z,1014.11
2018-12-19T10:02:06.341Z,1014.13
2018-12-19T10:03:06.333Z,1014.07
2018-12-19T10:04:06.322Z,1014.09
2018-12-19T10:05:06.310Z,1014.09
2018-12-19T10:06:06.303Z,1014.08
2018-12-19T10:07:06.289Z,1014.02
2018-12-19T10:08:06.277Z,1014.03
2018-12-19T10:09:07.658Z,1013.93
2018-12-19T10:10:07.259Z,1013.95
2018-12-19T10:11:06.247Z,1013.91
2018-12-19T10:12:06.235Z,1013.94
2018-12-19T10:13:06.225Z,1014.00
2018-12-19T10:14:06.216Z,1013.98
2018-12-19T10:15:06.203Z,1014.00
2018-12-19T10:16:06.196Z,1014.03
2018-12-19T10:17:06.183Z,1013.99
2018-12-19T10:18:06.173Z,1014.02
2018-12-19T10:19:06.164Z,1014.06
2018-12-19T10:20:06.151Z,1014.06
2018-12-19T10:21:06.140Z,1014.13
2018-12-19T10:22:06.131Z,1014.10
2018-12-19T10:23:06.123Z,1014.13
2018-12-19T10:24:06.108Z,1014.13
2018-12-19T10:25:06.100Z,1014.12
2018-12-19T10:26:06.088Z,1014.19
2018-12-19T10:27:06.079Z,1014.21
2018-12-19T10:28:06.072Z,1014.21
2018-12-19T10:29:06.058Z,1014.21
2018-12-19T10:30:06.046Z,1014.11
2018-12-19T10:31:06.041Z,1014.17
2018-12-19T10:32:06.029Z,1014.12
2018-12-19T10:33:06.016Z,1014.18
2018-12-19T10:34:06.004Z,1014.20
2018-12-19T10:35:05.996Z,1014.17
2018-12-19T10:36:05.982Z,1014.16
2018-12-19T10:37:07.505Z,1014.13
2018-12-19T10:38:05.963Z,1014.08
2018-12-19T10:39:05.952Z,1014.11
2018-12-19T10:40:05.942Z,1014.07
2018-12-19T10:41:05.938Z,1014.12
2018-12-19T10:42:05.917Z,1014.13
2018-12-19T10:43:05.912Z,1014.14
2018-12-19T10:44:05.896Z,1014.16
2018-12-19T10:45:05.890Z,1014.09
2018-12-19T10:46:05.880Z,1014.08
2018-12-19T10:47:05.866Z,1014.05
2018-12-19T10:48:05.857Z,1014.02
2018-12-19T10:49:05.845Z,1014.01
2018-12-19T10:50:05.833Z,1014.00
2018-12-19T10:51:05.824Z,1013.88
2018-12-19T10:52:05.816Z,1013.95
2018-12-19T10:53:05.800Z,1013.93
2018-12-19T10:54:05.796Z,1013.92
2018-12-19T10:55:05.781Z,1013.91
2018-12-19T10:56:05.771Z,1013.90
2018-12-19T10:57:05.761Z,1013.90
2018-12-19T10:58:05.752Z,1013.87
2018-12-19T10:59:05.740Z,1013.80
2018-12-19T11:00:05.729Z,1013.84
2018-12-19T11:01:05.718Z,1013.81
2018-12-19T11:02:05.708Z,1013.78
2018-12-19T11:03:05.699Z,1013.78
2018-12-19T11:04:05.687Z,1013.76
2018-12-19T11:05:05.677Z,1013.72
2018-12-19T11:06:05.671Z,1013.70
2018-12-19T11:07:05.657Z,1013.74
2018-12-19T11:08:05.644Z,1013.71
2018-12-19T11:09:05.642Z,1013.66
2018-12-19T11:10:05.624Z,1013.60
2018-12-19T11:11:05.613Z,1013.56
2018-12-19T11:12:05.602Z,1013.58
2018-12-19T11:13:05.590Z,1013.52
2018-12-19T11:14:05.581Z,1013.53
2018-12-19T11:15:05.569Z,1013.51
2018-12-19T11:16:05.559Z,1013.55
2018-12-19T11:17:05.548Z,1013.60
2018-12-19T11:18:05.536Z,1013.66
2018-12-19T11:19:05.528Z,1013.61
2018-12-19T11:20:05.522Z,1013.55
2018-12-19T11:21:05.506Z,1013.58
2018-12-19T11:22:05.497Z,1013.56
2018-12-19T11:23:05.486Z,1013.52
2018-12-19T11:24:05.472Z,1013.48
2018-12-19T11:25:05.464Z,1013.48
2018-12-19T11:26:05.454Z,1013.45
2018-12-19T11:27:05.440Z,1013.46
2018-12-19T11:28:05.433Z,1013.46
2018-12-19T11:29:05.422Z,1013.43
2018-12-19T11:30:05.411Z,1013.45
2018-12-19T11:31:05.401Z,1013.41
2018-12-19T11:32:05.390Z,1013.51
2018-12-19T11:33:05.379Z,1013.39
2018-12-19T11:34:05.371Z,1013.39
2018-12-19T11:35:05.359Z,1013.44
2018-12-19T11:36:05.353Z,1013.34
2018-12-19T11:37:05.354Z,1013.41
2018-12-19T11:38:05.328Z,1013.36
2018-12-19T11:39:05.314Z,1013.24
2018-12-19T11:40:05.305Z,1013.30
2018-12-19T11:41:05.295Z,1013.35
2018-12-19T11:42:05.283Z,1013.23
2018-12-19T11:43:05.276Z,1013.27
2018-12-19T11:44:05.263Z,1013.28
2018-12-19T11:45:05.253Z,1013.28
2018-12-19T11:46:05.241Z,1013.34
2018-12-19T11:47:05.233Z,1013.32
2018-12-19T11:48:05.221Z,1013.32
2018-12-19T11:49:05.210Z,1013.29
2018-12-19T11:50:05.198Z,1013.32
2018-12-19T11:51:05.189Z,1013.32
2018-12-19T11:52:05.176Z,1013.31
2018-12-19T11:53:05.169Z,1013.35
2018-12-19T11:54:05.156Z,1013.30
2018-12-19T11:55:05.146Z,1013.27
2018-12-19T11:56:05.137Z,1013.24
2018-12-19T11:57:05.126Z,1013.23
2018-12-19T11:58:05.113Z,1013.26
2018-12-19T11:59:05.108Z,1013.26
2018-12-19T12:00:05.094Z,1013.24
2018-12-19T12:01:05.082Z,1013.24
2018-12-19T12:02:05.073Z,1013.24
2018-12-19T12:03:05.063Z,1013.20
2018-12-19T12:04:05.049Z,1013.20
2018-12-19T12:05:05.038Z,1013.24